Amagi Galaxy — V7VE9 — position and weather

sailwx.info

Track history (hours):
 
Tides and Currents Weather Stations Pressure Air Temp Water Temp Dewpoint Dewpoint Depression Visibility Wind Speed Wind Dir Waves Ship Positions

Amagi Galaxy

Last reported at 2016-Apr-23 15:33 UTC. Time now 2016-May-05 02:52 UTC.
Position N 02°01' E 102°11'.
Warning: this ship's position is 11 days out of date.

Length 152 m; draft 7.8 m.

Type: Ship. MMSI: 538004105.

Date/timePositionNaut miles runAvg speedWind from/ knotsBaromVisibWave heightAir tempDewpointWater temp
2016-Apr-23 15:33N 02°01' E 102°11'1413.8
2016-Apr-23 14:32N 01°54' E 102°24'1313.3
2016-Apr-23 13:33N 01°48' E 102°36'1313.3
2016-Apr-23 12:33N 01°43' E 102°48'5114.9
2016-Apr-23 09:09N 01°13' E 103°29'915.0
2016-Apr-23 08:34N 01°11' E 103°38'1312.8
2016-Apr-23 07:34N 01°12' E 103°50'1414.1
2016-Apr-23 06:33N 01°16' E 104°04'  
2016-Apr-17 19:31N 01°14' E 104°06'1313.5
2016-Apr-17 18:33N 01°12' E 103°53'1413.5
2016-Apr-17 17:33N 01°04' E 103°42'1010.2
2016-Apr-17 16:33N 01°10' E 103°33'7 7.6
2016-Apr-17 15:33N 01°14' E 103°39'0 0.3
2016-Apr-17 14:28N 01°14' E 103°39'0 0.1
2016-Apr-17 13:31N 01°14' E 103°39'0 0.2
2016-Apr-17 12:22N 01°14' E 103°39'0 0.0
2016-Apr-17 11:31N 01°14' E 103°39'0 0.1
2016-Apr-17 10:34N 01°14' E 103°39'0 0.1
2016-Apr-17 08:22N 01°14' E 103°39'0 0.1
2016-Apr-17 07:31N 01°14' E 103°39'0 0.0
2016-Apr-17 06:31N 01°14' E 103°39'0 0.1
2016-Apr-17 05:31N 01°14' E 103°39'0 0.1
2016-Apr-17 04:34N 01°14' E 103°39'0 0.0
2016-Apr-17 02:31N 01°14' E 103°39'1 0.9
2016-Apr-17 01:33N 01°13' E 103°40'3 3.0
2016-Apr-17 00:33N 01°15' E 103°42'0 0.0
2016-Apr-16 23:30N 01°15' E 103°42'0 0.0
2016-Apr-16 22:33N 01°15' E 103°42'0 0.0
2016-Apr-16 21:33N 01°15' E 103°42'0 0.0
2016-Apr-16 20:30N 01°15' E 103°42'0 0.0
2016-Apr-16 19:33N 01°15' E 103°42'0 0.0
2016-Apr-16 18:33N 01°15' E 103°42'0 0.0
2016-Apr-16 17:27N 01°15' E 103°42'0 0.0
2016-Apr-16 16:33N 01°15' E 103°42'0 0.0
2016-Apr-16 15:24N 01°15' E 103°42'0 0.0
2016-Apr-16 14:33N 01°15' E 103°42'0 0.0
2016-Apr-16 13:33N 01°15' E 103°42'0 0.0
2016-Apr-16 12:30N 01°15' E 103°42'0 0.0
2016-Apr-16 11:30N 01°15' E 103°42'0 0.0
2016-Apr-16 10:27N 01°15' E 103°42'0 0.0
2016-Apr-16 09:33N 01°15' E 103°42'0 0.0
2016-Apr-16 08:27N 01°15' E 103°42'0 0.0
2016-Apr-16 07:12N 01°15' E 103°42'0 0.0
2016-Apr-16 06:18N 01°15' E 103°42'0 0.0
2016-Apr-16 05:33N 01°15' E 103°42'0 0.0
2016-Apr-16 04:30N 01°15' E 103°42'0 0.0
2016-Apr-16 02:34N 01°15' E 103°42'0 0.0
2016-Apr-16 01:34N 01°15' E 103°42'0 0.0
2016-Apr-16 00:33N 01°15' E 103°42'0 0.0
2016-Apr-15 23:34N 01°15' E 103°42'3 2.5
2016-Apr-15 22:33N 01°13' E 103°41'2 2.0
2016-Apr-15 21:32N 01°14' E 103°39'0 0.0
2016-Apr-15 20:32N 01°14' E 103°39'0 0.0
2016-Apr-15 19:17N 01°14' E 103°39'0 0.0
2016-Apr-15 18:32N 01°14' E 103°39'0 0.0
2016-Apr-15 17:20N 01°14' E 103°39'0 0.0
2016-Apr-15 16:14N 01°14' E 103°39'1 2.0
2016-Apr-15 15:33N 01°13' E 103°39'5 4.9
2016-Apr-15 14:33N 01°10' E 103°35'7 0.3
2016-Apr-14 14:15N 01°06' E 103°29'0 0.0
2016-Apr-14 09:33N 01°06' E 103°29'8 7.8
2016-Apr-14 08:33N 01°11' E 103°35'1111.5
2016-Apr-14 07:33N 01°09' E 103°46'1313.2
2016-Apr-14 06:33N 01°15' E 103°58'8 7.6
2016-Apr-14 05:32N 01°21' E 104°03'  
Track history (hours):
 
Tides and Currents Weather Stations Pressure Air Temp Water Temp Dewpoint Dewpoint Depression Visibility Wind Speed Wind Dir Waves Ship Positions

Amagi Galaxy

Last reported at 2016-Apr-23 15:33 UTC. Time now 2016-May-05 02:52 UTC.
Position N 02°01' E 102°11'.
Warning: this ship's position is 11 days out of date.

Length 152 m; draft 7.8 m.

Type: Ship. MMSI: 538004105.

Date/timePositionNaut miles runAvg speedWind from/ knotsBaromVisibWave heightAir tempDewpointWater temp
2016-Apr-23 15:33N 02°01' E 102°11'1413.8
2016-Apr-23 14:32N 01°54' E 102°24'1313.3
2016-Apr-23 13:33N 01°48' E 102°36'1313.3
2016-Apr-23 12:33N 01°43' E 102°48'5114.9
2016-Apr-23 09:09N 01°13' E 103°29'915.0
2016-Apr-23 08:34N 01°11' E 103°38'1312.8
2016-Apr-23 07:34N 01°12' E 103°50'1414.1
2016-Apr-23 06:33N 01°16' E 104°04'  
2016-Apr-17 19:31N 01°14' E 104°06'1313.5
2016-Apr-17 18:33N 01°12' E 103°53'1413.5
2016-Apr-17 17:33N 01°04' E 103°42'1010.2
2016-Apr-17 16:33N 01°10' E 103°33'7 7.6
2016-Apr-17 15:33N 01°14' E 103°39'0 0.3
2016-Apr-17 14:28N 01°14' E 103°39'0 0.1
2016-Apr-17 13:31N 01°14' E 103°39'0 0.2
2016-Apr-17 12:22N 01°14' E 103°39'0 0.0
2016-Apr-17 11:31N 01°14' E 103°39'0 0.1
2016-Apr-17 10:34N 01°14' E 103°39'0 0.1
2016-Apr-17 08:22N 01°14' E 103°39'0 0.1
2016-Apr-17 07:31N 01°14' E 103°39'0 0.0
2016-Apr-17 06:31N 01°14' E 103°39'0 0.1
2016-Apr-17 05:31N 01°14' E 103°39'0 0.1
2016-Apr-17 04:34N 01°14' E 103°39'0 0.0
2016-Apr-17 02:31N 01°14' E 103°39'1 0.9
2016-Apr-17 01:33N 01°13' E 103°40'3 3.0
2016-Apr-17 00:33N 01°15' E 103°42'0 0.0
2016-Apr-16 23:30N 01°15' E 103°42'0 0.0
2016-Apr-16 22:33N 01°15' E 103°42'0 0.0
2016-Apr-16 21:33N 01°15' E 103°42'0 0.0
2016-Apr-16 20:30N 01°15' E 103°42'0 0.0
2016-Apr-16 19:33N 01°15' E 103°42'0 0.0
2016-Apr-16 18:33N 01°15' E 103°42'0 0.0
2016-Apr-16 17:27N 01°15' E 103°42'0 0.0
2016-Apr-16 16:33N 01°15' E 103°42'0 0.0
2016-Apr-16 15:24N 01°15' E 103°42'0 0.0
2016-Apr-16 14:33N 01°15' E 103°42'0 0.0
2016-Apr-16 13:33N 01°15' E 103°42'0 0.0
2016-Apr-16 12:30N 01°15' E 103°42'0 0.0
2016-Apr-16 11:30N 01°15' E 103°42'0 0.0
2016-Apr-16 10:27N 01°15' E 103°42'0 0.0
2016-Apr-16 09:33N 01°15' E 103°42'0 0.0
2016-Apr-16 08:27N 01°15' E 103°42'0 0.0
2016-Apr-16 07:12N 01°15' E 103°42'0 0.0
2016-Apr-16 06:18N 01°15' E 103°42'0 0.0
2016-Apr-16 05:33N 01°15' E 103°42'0 0.0
2016-Apr-16 04:30N 01°15' E 103°42'0 0.0
2016-Apr-16 02:34N 01°15' E 103°42'0 0.0
2016-Apr-16 01:34N 01°15' E 103°42'0 0.0
2016-Apr-16 00:33N 01°15' E 103°42'0 0.0
2016-Apr-15 23:34N 01°15' E 103°42'3 2.5
2016-Apr-15 22:33N 01°13' E 103°41'2 2.0
2016-Apr-15 21:32N 01°14' E 103°39'0 0.0
2016-Apr-15 20:32N 01°14' E 103°39'0 0.0
2016-Apr-15 19:17N 01°14' E 103°39'0 0.0
2016-Apr-15 18:32N 01°14' E 103°39'0 0.0
2016-Apr-15 17:20N 01°14' E 103°39'0 0.0
2016-Apr-15 16:14N 01°14' E 103°39'1 2.0
2016-Apr-15 15:33N 01°13' E 103°39'5 4.9
2016-Apr-15 14:33N 01°10' E 103°35'7 0.3
2016-Apr-14 14:15N 01°06' E 103°29'0 0.0
2016-Apr-14 09:33N 01°06' E 103°29'8 7.8
2016-Apr-14 08:33N 01°11' E 103°35'1111.5
2016-Apr-14 07:33N 01°09' E 103°46'1313.2
2016-Apr-14 06:33N 01°15' E 103°58'8 7.6
2016-Apr-14 05:32N 01°21' E 104°03'  

Dump ship's entire track history